Time;durP1;ratioP1;P1;durP2;ratioP2;P2;SDS_P1;SDS_P2;PMS_P1;PMS_P2;Temp;Humidity;BMP_temperature;BMP_pressure;BME280_temperature;BME280_humidity;BME280_pressure;Samples;Min_cycle;Max_cycle;Signal;HPM_P1;HPM_P2
2023/01/26 00:00:52;;;;;;;2.15;1.25;;;;;;;;;;5050525;28;20036;-70
2023/01/26 00:03:57;;;;;;;1.20;1.10;;;9.80;97.10;;;;;;5050204;28;20033;-69
2023/01/26 00:07:01;;;;;;;1.60;1.15;;;10.30;97.40;;;;;;5050267;28;20041;-69
2023/01/26 00:10:05;;;;;;;1.33;1.08;;;10.20;97.30;;;;;;5050030;28;20059;-69
2023/01/26 00:13:09;;;;;;;1.88;1.40;;;9.90;97.40;;;;;;5050157;28;20048;-69
2023/01/26 00:16:14;;;;;;;2.20;1.50;;;10.00;97.60;;;;;;5050196;28;20041;-69
2023/01/26 00:19:18;;;;;;;1.60;1.50;;;9.70;97.60;;;;;;5050120;28;20048;-69
2023/01/26 00:22:26;;;;;;;1.77;1.20;;;9.40;97.40;;;;;;5050229;28;20037;-68
2023/01/26 00:25:30;;;;;;;2.50;1.50;;;9.70;97.50;;;;;;5050032;28;20049;-69
2023/01/26 00:28:33;;;;;;;1.38;1.10;;;10.80;97.70;;;;;;5050031;28;20033;-69
2023/01/26 00:31:38;;;;;;;1.75;1.27;;;10.10;97.30;;;;;;5051933;28;20040;-69
2023/01/26 00:34:42;;;;;;;1.33;1.15;;;10.60;97.40;;;;;;5052488;28;20044;-68
2023/01/26 00:37:54;;;;;;;1.60;1.30;;;9.20;97.10;;;;;;5052532;28;20512;-69
2023/01/26 00:40:58;;;;;;;2.03;1.17;;;9.80;97.10;;;;;;5052770;28;20037;-69
2023/01/26 00:44:02;;;;;;;1.55;1.23;;;9.90;97.20;;;;;;5053377;28;20037;-69
2023/01/26 00:47:07;;;;;;;1.20;1.10;;;9.80;96.80;;;;;;5052534;28;20032;-69
2023/01/26 00:50:12;;;;;;;3.38;1.05;;;11.90;97.30;;;;;;5053532;28;20369;-69
2023/01/26 00:53:16;;;;;;;3.90;1.88;;;9.00;96.50;;;;;;5053335;28;20052;-69
2023/01/26 00:56:21;;;;;;;2.22;1.77;;;10.10;96.70;;;;;;5052949;28;20033;-69
2023/01/26 00:59:25;;;;;;;3.97;2.33;;;9.90;96.50;;;;;;5052316;28;20420;-69
2023/01/26 01:02:28;;;;;;;2.95;1.50;;;9.80;96.50;;;;;;5053037;28;20033;-69
2023/01/26 01:05:33;;;;;;;2.42;1.40;;;9.90;96.60;;;;;;5051928;28;20033;-69
2023/01/26 01:08:37;;;;;;;4.82;1.38;;;9.60;96.60;;;;;;5053003;28;20369;-69
2023/01/26 01:11:44;;;;;;;0.98;0.80;;;11.60;97.30;;;;;;5052465;28;20049;-69
2023/01/26 01:14:48;;;;;;;2.78;1.42;;;9.90;96.80;;;;;;5040646;28;20522;-70
2023/01/26 01:17:52;;;;;;;3.38;2.20;;;;;;;;;;5052542;28;20458;-69
2023/01/26 01:20:57;;;;;;;3.20;2.10;;;;;;;;;;5051652;28;20033;-68
2023/01/26 01:24:01;;;;;;;1.75;1.45;;;9.70;96.90;;;;;;5052659;28;20631;-68
2023/01/26 01:27:08;;;;;;;2.50;1.73;;;9.80;96.90;;;;;;5052384;28;20045;-69
2023/01/26 01:30:12;;;;;;;1.48;1.10;;;9.70;97.10;;;;;;5052560;28;20041;-68
2023/01/26 01:33:17;;;;;;;1.23;1.00;;;9.80;97.10;;;;;;5052528;28;20338;-68
2023/01/26 01:36:21;;;;;;;1.70;0.77;;;8.80;96.80;;;;;;5052209;28;20037;-69
2023/01/26 01:39:30;;;;;;;1.08;0.90;;;9.80;97.00;;;;;;5051625;28;20089;-68
2023/01/26 01:42:34;;;;;;;1.98;1.10;;;9.80;97.00;;;;;;5052088;28;20033;-69
2023/01/26 01:45:48;;;;;;;1.50;1.08;;;9.80;97.10;;;;;;5051422;28;20373;-69
2023/01/26 01:49:09;;;;;;;1.08;0.98;;;9.90;97.10;;;;;;5051022;28;20630;-68
2023/01/26 01:52:18;;;;;;;2.80;1.33;;;10.70;97.30;;;;;;5052021;28;20041;-68
2023/01/26 01:55:24;;;;;;;1.02;0.93;;;;;;;;;;5051232;28;20044;-69
2023/01/26 01:58:30;;;;;;;1.95;1.50;;;8.90;96.80;;;;;;5050787;28;20045;-68
2023/01/26 02:01:35;;;;;;;2.85;1.90;;;9.60;97.10;;;;;;5050922;28;20032;-68
2023/01/26 02:04:39;;;;;;;3.70;1.67;;;;;;;;;;5051123;28;20041;-69
2023/01/26 02:07:45;;;;;;;2.92;1.58;;;9.90;97.20;;;;;;5050783;28;20053;-69
2023/01/26 02:10:53;;;;;;;1.40;1.05;;;9.80;96.60;;;;;;5050893;28;20373;-68
2023/01/26 02:13:59;;;;;;;1.70;1.20;;;9.60;96.50;;;;;;5050712;28;20029;-68
2023/01/26 02:17:03;;;;;;;1.48;1.10;;;10.20;96.90;;;;;;5051574;28;20040;-68
2023/01/26 02:20:16;;;;;;;1.73;1.17;;;10.90;97.30;;;;;;5050691;28;20057;-69
2023/01/26 02:23:33;;;;;;;1.65;1.30;;;;;;;;;;5051274;28;20048;-68
2023/01/26 02:26:40;;;;;;;1.35;0.85;;;10.70;97.70;;;;;;5051500;28;20504;-68
2023/01/26 02:29:44;;;;;;;1.02;0.93;;;9.60;97.40;;;;;;5050420;28;20052;-68
2023/01/26 02:32:48;;;;;;;1.17;0.90;;;;;;;;;;5050099;28;20037;-69
2023/01/26 02:35:52;;;;;;;0.82;0.80;;;10.00;97.00;;;;;;5038991;28;20029;-68
2023/01/26 02:39:02;;;;;;;1.27;1.10;;;9.60;97.10;;;;;;5050111;28;20052;-69
2023/01/26 02:45:30;;;;;;;1.98;1.25;;;9.90;97.10;;;;;;5049992;28;20037;-68
2023/01/26 02:52:05;;;;;;;1.25;1.15;;;10.10;97.30;;;;;;5052823;28;20049;-68
2023/01/26 02:55:44;;;;;;;1.17;1.08;;;;;;;;;;5049840;28;20059;-69
2023/01/26 02:58:41;;;;;;;0.85;0.82;;;9.70;97.20;;;;;;5049921;28;20049;-68
2023/01/26 03:01:52;;;;;;;1.33;1.10;;;9.20;97.20;;;;;;5050191;28;20032;-68
2023/01/26 03:04:56;;;;;;;1.10;1.00;;;8.50;97.10;;;;;;5050307;28;20389;-69
2023/01/26 03:08:00;;;;;;;1.70;1.60;;;;;;;;;;5049920;28;20441;-69
2023/01/26 03:11:10;;;;;;;2.40;1.65;;;10.20;97.30;;;;;;5049875;28;20052;-69
2023/01/26 03:14:16;;;;;;;1.30;1.10;;;9.20;97.20;;;;;;5049598;28;20420;-69
2023/01/26 03:17:21;;;;;;;1.15;1.05;;;11.20;97.80;;;;;;5038406;28;20381;-68
2023/01/26 03:27:25;;;;;;;1.50;0.93;;;10.60;97.70;;;;;;5049765;28;20029;-69
2023/01/26 03:30:29;;;;;;;1.40;1.00;;;8.90;97.30;;;;;;5049853;28;20516;-69
2023/01/26 03:33:33;;;;;;;1.33;1.08;;;10.50;97.60;;;;;;5050483;28;20037;-68
2023/01/26 03:36:38;;;;;;;2.35;1.15;;;9.50;97.50;;;;;;5049647;28;20052;-69
2023/01/26 03:56:47;;;;;;;1.20;0.95;;;11.70;97.60;;;;;;5049512;28;20037;-69
2023/01/26 03:59:54;;;;;;;1.60;1.08;;;;;;;;;;5049529;28;20048;-68
2023/01/26 04:09:45;;;;;;;1.23;1.02;;;10.50;97.50;;;;;;5041734;28;20040;-69
2023/01/26 04:22:58;;;;;;;1.05;0.80;;;9.70;97.20;;;;;;5053106;28;20036;-68
2023/01/26 04:26:02;;;;;;;1.02;0.93;;;9.50;97.30;;;;;;5053002;28;20045;-69
2023/01/26 04:29:08;;;;;;;1.23;1.00;;;10.00;97.70;;;;;;5053225;28;20369;-69
2023/01/26 04:32:12;;;;;;;1.10;0.73;;;9.60;97.70;;;;;;5052762;28;20044;-68
2023/01/26 04:35:20;;;;;;;2.72;1.15;;;;;;;;;;5052861;28;20029;-69
2023/01/26 04:38:25;;;;;;;1.10;1.00;;;9.50;97.90;;;;;;5052524;28;20060;-69
2023/01/26 04:41:31;;;;;;;1.40;1.20;;;9.40;98.10;;;;;;5052438;28;20036;-68
2023/01/26 04:44:43;;;;;;;2.42;1.02;;;9.60;98.30;;;;;;5041121;28;20040;-69
2023/01/26 04:47:47;;;;;;;1.25;1.15;;;8.50;98.30;;;;;;5052327;28;20614;-69
2023/01/26 04:51:11;;;;;;;1.30;1.15;;;9.50;98.70;;;;;;5052578;28;20044;-69
2023/01/26 04:54:15;;;;;;;;;;;9.30;98.70;;;;;;5053605;28;20041;-69
2023/01/26 04:57:23;;;;;;;1.33;1.10;;;;;;;;;;5052405;28;19935;-68
2023/01/26 05:00:28;;;;;;;1.63;1.30;;;10.10;98.80;;;;;;5052897;28;20041;-68
2023/01/26 05:03:32;;;;;;;1.50;1.25;;;10.20;98.70;;;;;;5052337;28;20059;-69
2023/01/26 05:06:37;;;;;;;2.70;1.20;;;;;;;;;;5052907;28;20527;-68
2023/01/26 05:09:42;;;;;;;1.05;0.90;;;8.90;98.20;;;;;;5040933;28;20045;-68
2023/01/26 05:13:09;;;;;;;2.42;1.20;;;10.90;98.40;;;;;;5052707;28;20049;-68
2023/01/26 05:16:32;;;;;;;2.75;1.40;;;;;;;;;;5051243;28;20044;-70
2023/01/26 05:20:05;;;;;;;1.58;1.10;;;8.60;96.80;;;;;;5051237;28;20037;-68
2023/01/26 05:23:16;;;;;;;;;;;9.00;96.70;;;;;;5053074;28;20033;-68
2023/01/26 05:26:39;;;;;;;1.20;0.70;;;8.80;96.60;;;;;;5052557;28;20272;-69
2023/01/26 05:29:53;;;;;;;0.88;0.63;;;10.10;96.80;;;;;;5051415;28;20029;-69
2023/01/26 05:33:03;;;;;;;0.95;0.85;;;9.30;96.70;;;;;;5052457;28;20044;-68
2023/01/26 05:36:07;;;;;;;1.10;0.73;;;9.30;96.80;;;;;;5052352;28;20033;-69
2023/01/26 05:39:15;;;;;;;1.30;0.80;;;8.80;96.70;;;;;;5051397;28;20470;-68
2023/01/26 05:42:19;;;;;;;0.80;0.70;;;9.50;96.60;;;;;;5051167;28;20044;-68
2023/01/26 05:45:29;;;;;;;1.83;0.90;;;9.30;96.70;;;;;;5052519;28;20045;-68
2023/01/26 05:48:36;;;;;;;1.50;1.00;;;9.10;96.80;;;;;;5051310;28;20378;-68
2023/01/26 05:51:40;;;;;;;1.33;1.00;;;9.10;96.70;;;;;;5051534;28;20033;-69
2023/01/26 05:54:45;;;;;;;1.38;0.95;;;8.50;96.60;;;;;;5039615;28;20373;-68
2023/01/26 05:57:49;;;;;;;2.22;0.80;;;9.50;96.60;;;;;;5051851;28;20037;-69
2023/01/26 06:00:53;;;;;;;1.50;1.10;;;9.50;96.60;;;;;;5051422;28;20044;-69
2023/01/26 06:04:03;;;;;;;2.22;1.08;;;;;;;;;;5051701;28;20362;-69
2023/01/26 06:07:23;;;;;;;1.20;1.08;;;10.00;96.90;;;;;;5051390;28;20033;-69
2023/01/26 06:10:41;;;;;;;1.52;0.80;;;;;;;;;;5051032;28;20044;-68
2023/01/26 06:14:02;;;;;;;1.25;1.10;;;9.40;97.10;;;;;;5039799;28;20485;-69
2023/01/26 06:17:07;;;;;;;1.30;0.90;;;9.00;96.80;;;;;;5051360;28;20037;-71
2023/01/26 06:20:13;;;;;;;2.05;1.08;;;9.80;97.00;;;;;;5050907;28;20037;-69
2023/01/26 06:23:18;;;;;;;4.30;1.27;;;9.60;97.00;;;;;;5050985;28;20039;-70
2023/01/26 06:26:23;;;;;;;1.75;1.33;;;8.00;96.60;;;;;;5051249;28;20370;-69
2023/01/26 06:29:28;;;;;;;1.63;1.27;;;12.80;97.70;;;;;;5049992;28;20041;-69
2023/01/26 06:32:32;;;;;;;2.58;1.40;;;8.60;96.60;;;;;;5050909;28;20048;-70
2023/01/26 06:35:36;;;;;;;2.70;1.27;;;9.50;96.80;;;;;;5050862;28;20033;-72
2023/01/26 06:38:47;;;;;;;1.67;1.13;;;9.30;96.70;;;;;;5050673;28;20052;-72
2023/01/26 06:41:51;;;;;;;1.50;1.40;;;9.30;96.50;;;;;;5050823;28;20033;-69
2023/01/26 06:44:56;;;;;;;2.45;1.00;;;9.40;96.50;;;;;;5050571;28;20045;-70
2023/01/26 06:48:01;;;;;;;1.33;1.23;;;9.40;96.40;;;;;;5051591;28;20041;-70
2023/01/26 06:51:17;;;;;;;2.28;1.33;;;9.40;96.50;;;;;;5051473;28;20569;-70
2023/01/26 06:54:22;;;;;;;3.90;1.45;;;9.40;96.30;;;;;;5051034;28;20492;-69
2023/01/26 06:57:58;;;;;;;3.38;1.50;;;9.00;96.30;;;;;;5051234;28;20037;-69
2023/01/26 07:01:24;;;;;;;3.58;1.23;;;9.00;96.10;;;;;;5051368;28;20369;-71
2023/01/26 07:04:29;;;;;;;2.03;1.42;;;;;;;;;;5051312;28;20029;-74
2023/01/26 07:07:33;;;;;;;4.53;1.38;;;;;;;;;;5051298;28;20041;-71
2023/01/26 07:10:38;;;;;;;2.17;1.30;;;;;;;;;;5051198;28;20037;-71
2023/01/26 07:13:41;;;;;;;5.78;1.80;;;9.80;96.00;;;;;;5050987;28;20033;-72
2023/01/26 07:16:45;;;;;;;7.82;2.38;;;10.70;96.30;;;;;;5051465;28;20041;-70
2023/01/26 07:19:49;;;;;;;3.83;2.03;;;6.40;95.20;;;;;;5051114;28;20044;-69
2023/01/26 07:22:54;;;;;;;3.08;1.65;;;;;;;;;;5051067;28;20058;-70
2023/01/26 07:25:58;;;;;;;3.00;1.85;;;9.80;95.50;;;;;;5050624;28;20357;-71
2023/01/26 07:29:03;;;;;;;2.80;1.60;;;9.90;95.30;;;;;;5050968;28;20037;-70
2023/01/26 07:32:07;;;;;;;2.40;1.58;;;;;;;;;;5050767;28;20037;-69
2023/01/26 07:35:11;;;;;;;2.75;1.08;;;9.80;95.10;;;;;;5050835;28;20032;-67
2023/01/26 07:38:15;;;;;;;1.48;1.00;;;9.80;94.80;;;;;;5050601;28;20084;-67
2023/01/26 07:41:19;;;;;;;2.05;1.60;;;;;;;;;;5055165;28;20041;-68
2023/01/26 07:44:24;;;;;;;4.97;1.90;;;;;;;;;;5055010;28;20045;-69
2023/01/26 07:47:28;;;;;;;2.80;1.38;;;9.80;94.90;;;;;;5055073;28;20040;-68
2023/01/26 07:50:32;;;;;;;8.35;1.55;;;;;;;;;;5055140;28;20040;-71
2023/01/26 07:53:38;;;;;;;2.70;1.35;;;;;;;;;;5054913;28;20048;-66
2023/01/26 07:56:43;;;;;;;3.30;1.60;;;10.80;95.00;;;;;;5054782;28;20041;-69
2023/01/26 07:59:47;;;;;;;5.13;1.48;;;10.00;94.60;;;;;;5054465;28;20056;-71
2023/01/26 08:02:52;;;;;;;1.40;1.30;;;10.70;94.80;;;;;;5055049;28;20108;-68
2023/01/26 08:05:55;;;;;;;4.05;1.90;;;10.40;94.60;;;;;;5053749;28;20047;-68
2023/01/26 08:08:59;;;;;;;4.03;1.70;;;10.60;94.40;;;;;;5054279;28;20040;-68
2023/01/26 08:12:04;;;;;;;3.72;2.40;;;10.80;94.30;;;;;;5053419;28;20056;-71
2023/01/26 08:15:09;;;;;;;2.90;2.00;;;11.40;93.90;;;;;;5054630;28;20052;-71
2023/01/26 08:18:14;;;;;;;7.35;1.67;;;;;;;;;;5054313;28;20048;-72
2023/01/26 08:21:19;;;;;;;2.30;1.42;;;11.30;93.50;;;;;;5053399;28;20045;-71
2023/01/26 08:24:23;;;;;;;2.22;1.52;;;10.90;93.60;;;;;;5054669;28;20040;-70
2023/01/26 08:27:26;;;;;;;4.18;1.85;;;11.00;93.60;;;;;;5054211;28;20044;-70
2023/01/26 08:30:30;;;;;;;3.88;1.73;;;;;;;;;;5054219;28;20048;-71
2023/01/26 08:33:35;;;;;;;3.92;1.48;;;;;;;;;;5054050;28;20041;-70
2023/01/26 08:36:39;;;;;;;4.00;1.77;;;12.00;93.30;;;;;;5053930;28;20041;-68
2023/01/26 08:39:43;;;;;;;12.40;2.78;;;11.90;92.70;;;;;;5053667;28;20056;-68
2023/01/26 08:42:47;;;;;;;7.03;3.88;;;11.30;92.10;;;;;;5053892;28;20036;-69
2023/01/26 08:45:52;;;;;;;2.90;1.65;;;;;;;;;;5052794;28;20048;-69
2023/01/26 08:48:57;;;;;;;2.05;1.45;;;;;;;;;;5053930;28;20033;-68
2023/01/26 08:52:01;;;;;;;6.47;1.90;;;;;;;;;;5052655;28;20346;-68
2023/01/26 08:55:05;;;;;;;4.70;1.83;;;12.60;92.30;;;;;;5053839;28;20044;-69
2023/01/26 08:58:09;;;;;;;3.88;1.52;;;11.70;92.10;;;;;;5053260;28;20538;-69
2023/01/26 09:01:15;;;;;;;2.22;1.60;;;11.70;92.10;;;;;;5052591;28;20139;-69
2023/01/26 09:04:19;;;;;;;2.50;1.90;;;11.90;91.80;;;;;;5053497;28;20040;-70
2023/01/26 09:07:23;;;;;;;2.20;1.40;;;;;;;;;;5053441;28;20091;-69
2023/01/26 09:10:28;;;;;;;2.35;1.67;;;;;;;;;;5053208;28;20057;-70
2023/01/26 09:13:32;;;;;;;2.03;1.70;;;;;;;;;;5053415;28;20041;-68
2023/01/26 09:16:37;;;;;;;1.55;1.30;;;;;;;;;;5052401;28;20041;-69
2023/01/26 09:19:40;;;;;;;4.50;1.70;;;11.80;92.20;;;;;;5041036;28;20501;-68
2023/01/26 09:22:45;;;;;;;4.38;1.73;;;11.70;92.00;;;;;;5052959;28;20044;-67
2023/01/26 09:25:52;;;;;;;1.85;1.50;;;12.30;92.30;;;;;;5052965;28;20047;-67
2023/01/26 09:28:56;;;;;;;4.43;1.88;;;;;;;;;;5052776;28;20043;-69
2023/01/26 09:32:00;;;;;;;1.52;1.40;;;11.70;92.40;;;;;;5052952;28;20040;-67
2023/01/26 09:35:05;;;;;;;11.30;2.00;;;10.00;92.60;;;;;;5052856;28;20648;-67
2023/01/26 09:38:09;;;;;;;5.50;2.20;;;11.20;92.60;;;;;;5052534;28;20393;-67
2023/01/26 09:41:24;;;;;;;2.28;1.65;;;11.30;92.60;;;;;;5052657;28;20052;-68
2023/01/26 09:44:36;;;;;;;4.53;2.03;;;12.50;93.10;;;;;;5052964;28;20040;-68
2023/01/26 09:48:04;;;;;;;1.70;1.60;;;11.30;92.90;;;;;;5052328;28;20052;-68
2023/01/26 09:51:22;;;;;;;2.85;2.00;;;11.40;92.90;;;;;;5052460;28;20396;-69
2023/01/26 09:54:42;;;;;;;3.78;2.20;;;9.10;92.60;;;;;;5052249;28;20044;-68
2023/01/26 09:57:49;;;;;;;3.15;1.88;;;11.40;92.90;;;;;;5052073;28;20044;-70
2023/01/26 10:00:59;;;;;;;3.88;1.85;;;11.40;93.10;;;;;;5051447;28;20533;-70
2023/01/26 10:04:38;;;;;;;3.83;2.33;;;11.40;93.50;;;;;;5052119;28;20064;-72
2023/01/26 10:07:44;;;;;;;2.60;2.00;;;11.40;93.20;;;;;;5052032;28;20055;-69
2023/01/26 10:11:01;;;;;;;4.82;2.30;;;11.50;93.00;;;;;;5052096;28;20056;-68
2023/01/26 10:14:19;;;;;;;5.93;2.35;;;11.50;92.90;;;;;;5050894;28;20064;-69
2023/01/26 10:17:31;;;;;;;4.63;2.85;;;11.40;93.30;;;;;;5051910;28;20040;-69
2023/01/26 10:20:41;;;;;;;4.03;2.60;;;11.40;93.10;;;;;;5052018;28;20048;-70
2023/01/26 10:23:50;;;;;;;3.13;2.35;;;9.60;92.80;;;;;;5051936;28;20047;-69
2023/01/26 10:26:57;;;;;;;3.20;2.25;;;11.40;93.30;;;;;;5051536;28;20037;-69
2023/01/26 10:30:01;;;;;;;8.40;2.92;;;11.20;93.30;;;;;;5051420;28;20052;-71
2023/01/26 10:33:14;;;;;;;4.80;3.30;;;11.30;93.60;;;;;;5050646;28;20067;-70
2023/01/26 10:36:18;;;;;;;6.10;2.90;;;;;;;;;;5051337;28;20040;-68
2023/01/26 10:39:23;;;;;;;2.95;2.10;;;;;;;;;;5050396;28;20390;-70
2023/01/26 10:42:29;;;;;;;4.22;2.60;;;11.20;93.70;;;;;;5050854;28;20033;-69
2023/01/26 10:45:45;;;;;;;3.85;2.47;;;11.10;93.70;;;;;;5051044;28;20048;-69
2023/01/26 10:48:54;;;;;;;5.00;2.78;;;11.80;94.00;;;;;;5051221;28;20040;-69
2023/01/26 10:52:07;;;;;;;2.95;2.40;;;;;;;;;;5050455;28;20036;-71
2023/01/26 10:55:19;;;;;;;3.33;2.58;;;11.50;94.00;;;;;;5050299;28;20369;-69
2023/01/26 10:58:48;;;;;;;4.80;2.67;;;11.00;94.10;;;;;;5050761;28;20056;-70
2023/01/26 11:02:01;;;;;;;5.72;3.35;;;10.90;93.90;;;;;;5049041;28;20048;-73
2023/01/26 11:05:07;;;;;;;11.45;4.15;;;11.00;94.10;;;;;;5050428;28;20044;-73
2023/01/26 11:08:34;;;;;;;4.25;2.95;;;11.00;93.60;;;;;;5051160;28;20052;-71
2023/01/26 11:11:39;;;;;;;3.80;2.50;;;12.50;93.80;;;;;;5050700;28;20519;-70
2023/01/26 11:15:03;;;;;;;6.82;3.42;;;11.00;93.80;;;;;;5050227;28;20048;-69
2023/01/26 11:18:07;;;;;;;5.68;2.70;;;;;;;;;;5050811;28;20048;-70
2023/01/26 11:21:18;;;;;;;3.40;2.63;;;;;;;;;;5050984;28;20041;-71
2023/01/26 11:24:37;;;;;;;1.95;1.65;;;12.00;93.60;;;;;;5051249;28;20033;-68
2023/01/26 11:28:02;;;;;;;2.72;2.05;;;10.20;93.60;;;;;;5049986;28;20044;-70
2023/01/26 11:31:06;;;;;;;3.13;2.25;;;;;;;;;;5050748;28;20040;-72
2023/01/26 11:34:19;;;;;;;4.10;2.70;;;10.70;94.20;;;;;;5051044;28;20374;-72
2023/01/26 11:37:45;;;;;;;3.47;2.10;;;10.40;93.60;;;;;;5050671;28;20106;-76
2023/01/26 11:41:00;;;;;;;4.70;2.33;;;;;;;;;;5051499;28;20044;-70
2023/01/26 11:44:16;;;;;;;4.03;2.38;;;;;;;;;;5050623;28;20041;-74
2023/01/26 11:47:23;;;;;;;3.42;1.98;;;10.70;93.80;;;;;;5050594;28;20041;-71
2023/01/26 11:50:27;;;;;;;3.97;2.00;;;;;;;;;;5050862;28;20044;-69
2023/01/26 11:53:44;;;;;;;3.05;2.15;;;;;;;;;;5050599;28;20041;-70
2023/01/26 11:57:06;;;;;;;3.70;2.58;;;10.60;94.40;;;;;;5050666;28;20032;-68
2023/01/26 12:00:15;;;;;;;5.25;2.22;;;11.70;94.20;;;;;;5050637;28;20531;-71
2023/01/26 12:03:44;;;;;;;2.47;1.85;;;10.70;93.80;;;;;;5049941;28;20044;-73
2023/01/26 12:06:54;;;;;;;4.50;2.22;;;10.30;93.10;;;;;;5050342;28;20392;-71
2023/01/26 12:10:01;;;;;;;3.17;2.57;;;10.70;93.50;;;;;;5049110;28;20076;-71
2023/01/26 12:13:35;;;;;;;5.63;2.75;;;10.70;93.70;;;;;;5049836;28;20063;-73
2023/01/26 12:16:42;;;;;;;4.07;2.10;;;11.60;93.80;;;;;;5049444;28;20044;-72
2023/01/26 12:20:03;;;;;;;3.15;2.03;;;10.50;93.60;;;;;;5049242;28;20068;-73
2023/01/26 12:23:26;;;;;;;4.35;2.83;;;;;;;;;;5049984;28;20044;-72
2023/01/26 12:26:40;;;;;;;4.13;2.75;;;10.20;94.00;;;;;;5052390;28;20033;-73
2023/01/26 12:30:00;;;;;;;5.35;2.40;;;;;;;;;;5054124;28;20060;-73
2023/01/26 12:33:04;;;;;;;6.20;2.20;;;10.60;94.00;;;;;;5054049;28;20037;-71
2023/01/26 12:36:24;;;;;;;3.33;2.53;;;10.50;94.20;;;;;;5053779;28;20396;-73
2023/01/26 12:39:39;;;;;;;4.25;2.90;;;10.60;94.20;;;;;;5053018;28;20044;-72
2023/01/26 12:42:58;;;;;;;4.00;2.55;;;;;;;;;;5052842;28;20047;-71
2023/01/26 12:46:05;;;;;;;10.13;3.40;;;10.30;94.10;;;;;;5053952;28;20048;-72
2023/01/26 12:49:33;;;;;;;3.85;2.75;;;10.00;94.30;;;;;;5053604;28;20040;-71
2023/01/26 12:53:02;;;;;;;4.03;3.20;;;10.20;94.80;;;;;;5053544;28;20048;-74
2023/01/26 12:56:22;;;;;;;6.90;2.90;;;10.20;94.60;;;;;;5052625;28;20047;-73
2023/01/26 12:59:32;;;;;;;7.03;2.90;;;10.60;94.60;;;;;;5053564;28;20048;-74
2023/01/26 13:02:36;;;;;;;4.32;2.42;;;10.80;94.70;;;;;;5053927;28;20044;-74
2023/01/26 13:06:00;;;;;;;3.20;2.53;;;10.10;94.40;;;;;;5053362;28;20036;-73
2023/01/26 13:09:19;;;;;;;5.93;2.95;;;11.10;94.50;;;;;;5053640;28;20048;-74
2023/01/26 13:12:43;;;;;;;5.35;3.00;;;10.20;94.30;;;;;;5052294;28;20047;-73
2023/01/26 13:16:08;;;;;;;9.35;3.47;;;;;;;;;;5053208;28;20040;-74
2023/01/26 13:19:41;;;;;;;3.55;2.03;;;10.20;94.00;;;;;;5053149;28;20049;-73
2023/01/26 13:22:46;;;;;;;3.33;2.50;;;10.30;94.10;;;;;;5053092;28;20511;-72
2023/01/26 13:26:14;;;;;;;4.20;3.08;;;10.20;94.00;;;;;;5052110;28;20052;-72
2023/01/26 13:29:26;;;;;;;5.32;2.80;;;10.30;93.90;;;;;;5052973;28;20385;-70
2023/01/26 13:32:30;;;;;;;;;;;10.30;94.00;;;;;;5053497;28;20047;-70
2023/01/26 13:35:35;;;;;;;5.72;2.65;;;;;;;;;;5052798;28;19932;-69
2023/01/26 13:38:43;;;;;;;11.27;5.78;;;;;;;;;;5052217;28;20045;-69
2023/01/26 13:41:51;;;;;;;2.42;1.60;;;10.20;93.60;;;;;;5052717;28;20044;-70
2023/01/26 13:45:03;;;;;;;4.57;2.10;;;9.00;93.60;;;;;;5052877;28;20043;-68
2023/01/26 13:48:19;;;;;;;3.00;2.20;;;10.20;94.00;;;;;;5051285;28;20068;-67
2023/01/26 13:51:28;;;;;;;5.68;3.58;;;;;;;;;;5051127;28;20055;-68
2023/01/26 13:54:32;;;;;;;5.68;3.63;;;10.20;94.20;;;;;;5051442;28;20029;-68
2023/01/26 13:57:36;;;;;;;3.70;2.47;;;10.10;94.10;;;;;;5051235;28;20044;-68
2023/01/26 14:00:40;;;;;;;3.72;2.63;;;10.90;94.40;;;;;;5051936;28;20052;-68
2023/01/26 14:03:45;;;;;;;6.35;3.70;;;10.10;93.80;;;;;;5052390;28;20052;-69
2023/01/26 14:07:03;;;;;;;5.00;2.88;;;10.00;93.90;;;;;;5051171;28;20044;-69
2023/01/26 14:10:14;;;;;;;5.07;3.03;;;;;;;;;;5052312;28;20420;-68
2023/01/26 14:13:32;;;;;;;3.92;2.50;;;10.40;93.50;;;;;;5052566;28;20045;-76
2023/01/26 14:16:37;;;;;;;2.22;2.00;;;10.30;93.40;;;;;;5051650;28;20056;-65
2023/01/26 14:19:41;;;;;;;2.88;2.30;;;10.00;93.30;;;;;;5051927;28;20400;-69
2023/01/26 14:22:47;;;;;;;7.85;3.58;;;10.20;93.80;;;;;;5051973;28;20511;-66
2023/01/26 14:26:02;;;;;;;3.53;2.10;;;10.40;93.20;;;;;;5051690;28;20515;-68
2023/01/26 14:29:21;;;;;;;2.22;1.80;;;10.50;93.30;;;;;;5050986;28;20040;-69
2023/01/26 14:32:28;;;;;;;4.03;2.00;;;;;;;;;;5051710;28;20048;-68
2023/01/26 14:35:32;;;;;;;3.90;2.60;;;;;;;;;;5051456;28;20398;-68
2023/01/26 14:38:49;;;;;;;2.75;2.28;;;10.30;93.60;;;;;;5051694;28;20045;-68
2023/01/26 14:41:53;;;;;;;4.40;2.60;;;10.70;94.10;;;;;;5050915;28;20056;-70
2023/01/26 14:44:57;;;;;;;2.90;1.98;;;10.20;94.00;;;;;;5051798;28;20040;-68
2023/01/26 14:48:07;;;;;;;4.68;2.40;;;9.70;93.70;;;;;;5049788;28;20047;-69
2023/01/26 14:51:20;;;;;;;3.83;2.97;;;11.10;94.10;;;;;;5050700;28;20044;-69
2023/01/26 14:54:31;;;;;;;18.77;9.68;;;11.10;94.30;;;;;;5051066;28;20044;-70
2023/01/26 14:57:34;;;;;;;10.43;5.38;;;10.20;94.20;;;;;;5050072;28;20055;-68
2023/01/26 15:00:38;;;;;;;9.43;5.10;;;10.20;94.20;;;;;;5051087;28;20071;-70
2023/01/26 15:03:43;;;;;;;8.07;4.55;;;;;;;;;;5051422;28;20040;-68
2023/01/26 15:06:50;;;;;;;6.72;4.45;;;10.80;94.00;;;;;;5051134;28;20378;-68
2023/01/26 15:09:55;;;;;;;11.45;6.45;;;;;;;;;;5051278;28;20051;-69
2023/01/26 15:12:59;;;;;;;10.10;5.72;;;;;;;;;;5050473;28;20052;-69
2023/01/26 15:16:11;;;;;;;10.10;5.85;;;;;;;;;;5050979;28;20043;-69
2023/01/26 15:19:22;;;;;;;6.78;3.58;;;10.40;93.10;;;;;;5050652;28;20052;-69
2023/01/26 15:22:27;;;;;;;12.93;5.75;;;10.40;92.80;;;;;;5050810;28;20044;-68
2023/01/26 15:25:32;;;;;;;16.75;7.63;;;10.40;93.10;;;;;;5050911;28;20051;-69
2023/01/26 15:28:37;;;;;;;13.82;6.13;;;10.70;93.20;;;;;;5051003;28;20067;-70
2023/01/26 15:31:42;;;;;;;8.30;6.18;;;10.30;93.00;;;;;;5050505;28;20396;-70
2023/01/26 15:34:45;;;;;;;7.80;5.18;;;9.70;92.70;;;;;;5050744;28;20063;-70
2023/01/26 15:38:10;;;;;;;7.82;5.38;;;10.30;92.80;;;;;;5050371;28;20477;-69
2023/01/26 15:41:15;;;;;;;7.50;5.50;;;;;;;;;;5050788;28;20053;-70
2023/01/26 15:44:20;;;;;;;5.60;3.78;;;;;;;;;;5050702;28;20037;-70
2023/01/26 15:47:25;;;;;;;9.98;7.10;;;;;;;;;;5050632;28;20496;-68
2023/01/26 15:50:29;;;;;;;6.35;3.97;;;;;;;;;;5050651;28;20497;-70
2023/01/26 15:53:33;;;;;;;9.38;4.65;;;10.40;92.80;;;;;;5050725;28;20044;-69
2023/01/26 15:56:37;;;;;;;11.60;6.57;;;;;;;;;;5049154;28;20060;-70
2023/01/26 15:59:41;;;;;;;15.27;8.05;;;10.60;92.90;;;;;;5050434;28;20048;-70
2023/01/26 16:02:45;;;;;;;10.48;7.03;;;;;;;;;;5054473;28;20484;-69
2023/01/26 16:05:49;;;;;;;10.25;6.05;;;10.30;92.70;;;;;;5054584;28;20052;-69
2023/01/26 16:08:54;;;;;;;6.40;4.05;;;;;;;;;;5054164;28;20040;-70
2023/01/26 16:11:58;;;;;;;3.55;2.95;;;;;;;;;;5053247;28;20117;-67
2023/01/26 16:15:17;;;;;;;4.22;2.83;;;10.00;92.30;;;;;;5053834;28;20033;-70
2023/01/26 16:18:21;;;;;;;4.07;3.08;;;;;;;;;;5053291;28;20052;-69
2023/01/26 16:21:30;;;;;;;8.13;5.15;;;8.90;92.30;;;;;;5051462;28;20061;-68
2023/01/26 16:24:34;;;;;;;17.27;10.25;;;11.10;92.90;;;;;;5052842;28;20045;-68
2023/01/26 16:27:39;;;;;;;8.32;5.43;;;;;;;;;;5052700;28;20040;-65
2023/01/26 16:30:44;;;;;;;6.85;4.63;;;10.30;92.60;;;;;;5053888;28;20025;-67
2023/01/26 16:33:49;;;;;;;5.57;4.20;;;;;;;;;;5053445;28;20040;-67
2023/01/26 16:36:56;;;;;;;8.23;5.15;;;;;;;;;;5053673;28;20037;-67
2023/01/26 16:40:00;;;;;;;20.17;11.57;;;10.30;92.70;;;;;;5053824;28;20501;-66
2023/01/26 16:43:04;;;;;;;7.18;4.68;;;10.00;92.80;;;;;;5053786;28;20520;-67
2023/01/26 16:46:08;;;;;;;8.98;5.82;;;9.80;93.10;;;;;;5053490;28;20040;-67
2023/01/26 16:49:15;;;;;;;12.48;7.20;;;10.20;93.30;;;;;;5053662;28;20041;-68
2023/01/26 16:52:19;;;;;;;12.85;8.80;;;9.90;93.50;;;;;;5053713;28;20040;-66
2023/01/26 16:55:23;;;;;;;11.93;10.40;;;10.40;94.00;;;;;;5053761;28;20503;-69
2023/01/26 16:58:29;;;;;;;7.15;5.25;;;10.10;94.20;;;;;;5053559;28;20048;-66
2023/01/26 17:01:35;;;;;;;8.95;6.38;;;11.90;94.50;;;;;;5053468;28;20393;-66
2023/01/26 17:04:40;;;;;;;8.00;5.30;;;10.00;92.90;;;;;;5053539;28;20051;-64
2023/01/26 17:07:44;;;;;;;14.30;5.18;;;10.20;92.70;;;;;;5053097;28;20040;-65
2023/01/26 17:10:48;;;;;;;13.73;8.00;;;10.20;92.60;;;;;;5053043;28;20508;-69
2023/01/26 17:13:52;;;;;;;11.45;7.57;;;;;;;;;;5052660;28;20099;-69
2023/01/26 17:16:59;;;;;;;6.72;5.20;;;;;;;;;;5052730;28;20499;-69
2023/01/26 17:20:04;;;;;;;13.80;7.70;;;8.30;92.90;;;;;;5052915;28;20053;-66
2023/01/26 17:23:08;;;;;;;11.25;6.63;;;10.30;93.90;;;;;;5052869;28;20044;-68
2023/01/26 17:26:16;;;;;;;11.93;7.57;;;10.50;94.00;;;;;;5052535;28;20051;-67
2023/01/26 17:29:20;;;;;;;22.98;11.52;;;10.20;93.70;;;;;;5053088;28;20626;-67
2023/01/26 17:32:24;;;;;;;11.70;8.40;;;10.70;93.50;;;;;;5052191;28;20072;-66
2023/01/26 17:35:29;;;;;;;7.40;5.47;;;;;;;;;;5052681;28;20048;-67
2023/01/26 17:38:33;;;;;;;13.63;9.70;;;9.90;92.50;;;;;;5052859;28;20370;-71
2023/01/26 17:41:37;;;;;;;9.45;5.43;;;;;;;;;;5052245;28;20052;-67
2023/01/26 17:44:41;;;;;;;9.57;7.13;;;;;;;;;;5052736;28;20037;-68